Time;durP1;ratioP1;P1;durP2;ratioP2;P2;SDS_P1;SDS_P2;PMS_P1;PMS_P2;Temp;Humidity;BMP_temperature;BMP_pressure;BME280_temperature;BME280_humidity;BME280_pressure;Samples;Min_cycle;Max_cycle;Signal;HPM_P1;HPM_P2
2021/10/10 00:01:24;;;;;;;3.93;2.77;;;16.50;73.10;;;;;;10400644;28;20217;-64
2021/10/10 00:06:46;;;;;;;3.03;2.70;;;16.50;72.80;;;;;;10407915;28;20598;-64
2021/10/10 00:12:10;;;;;;;3.57;3.27;;;16.50;72.90;;;;;;10374831;28;20209;-64
2021/10/10 00:17:32;;;;;;;3.03;2.70;;;16.50;72.90;;;;;;10414179;28;20198;-64
2021/10/10 00:22:54;;;;;;;3.80;2.97;;;16.50;73.10;;;;;;10382831;28;20716;-64
2021/10/10 00:28:17;;;;;;;3.13;2.70;;;16.50;72.80;;;;;;10397844;28;20214;-64
2021/10/10 00:33:40;;;;;;;3.73;3.30;;;16.50;72.90;;;;;;10401364;28;20193;-64
2021/10/10 00:39:02;;;;;;;3.73;2.63;;;16.50;72.90;;;;;;10376968;28;20233;-64
2021/10/10 00:44:25;;;;;;;4.07;3.40;;;16.50;72.80;;;;;;10381645;28;20587;-64
2021/10/10 00:49:48;;;;;;;3.43;2.80;;;16.50;72.80;;;;;;10371946;28;20218;-64
2021/10/10 00:55:11;;;;;;;3.23;2.77;;;16.40;72.90;;;;;;10371044;28;20202;-64
2021/10/10 01:00:34;;;;;;;3.20;2.90;;;16.50;72.80;;;;;;10370476;28;20215;-64
2021/10/10 01:05:56;;;;;;;3.70;2.97;;;16.40;72.70;;;;;;10377158;28;20241;-64
2021/10/10 01:11:20;;;;;;;4.37;3.00;;;16.40;72.70;;;;;;10376785;28;20214;-64
2021/10/10 01:16:44;;;;;;;3.70;2.80;;;16.40;72.50;;;;;;10402061;28;20209;-64
2021/10/10 01:22:07;;;;;;;3.80;3.07;;;16.40;72.60;;;;;;10370465;28;20223;-64
2021/10/10 01:27:29;;;;;;;3.13;2.73;;;16.40;72.50;;;;;;10383468;28;20954;-64
2021/10/10 01:32:55;;;;;;;3.30;2.97;;;16.40;72.40;;;;;;10410413;28;20196;-64
2021/10/10 01:38:19;;;;;;;4.17;2.97;;;16.40;72.40;;;;;;10410102;28;20224;-64
2021/10/10 01:43:42;;;;;;;3.97;3.00;;;16.40;72.80;;;;;;10392820;28;20226;-63
2021/10/10 01:49:04;;;;;;;4.07;3.07;;;16.40;72.30;;;;;;10379081;28;20695;-64
2021/10/10 01:54:28;;;;;;;3.63;2.83;;;16.40;72.20;;;;;;10383227;28;20197;-64
2021/10/10 01:59:50;;;;;;;3.73;3.30;;;16.40;72.20;;;;;;10408826;28;20218;-64
2021/10/10 02:05:12;;;;;;;3.53;2.83;;;16.40;72.30;;;;;;10405865;28;20595;-64
2021/10/10 02:10:35;;;;;;;2.80;2.40;;;16.40;72.10;;;;;;10409148;28;20575;-64
2021/10/10 02:15:58;;;;;;;3.03;2.50;;;16.40;72.20;;;;;;10397062;28;20205;-64
2021/10/10 02:21:20;;;;;;;3.23;2.90;;;16.40;72.10;;;;;;10367400;28;20222;-64
2021/10/10 02:26:43;;;;;;;4.87;3.10;;;16.40;72.00;;;;;;10369396;28;20572;-63
2021/10/10 02:32:06;;;;;;;4.57;3.20;;;16.40;72.00;;;;;;10406897;28;20288;-64
2021/10/10 02:37:28;;;;;;;3.10;2.80;;;16.40;71.90;;;;;;10405892;28;20209;-63
2021/10/10 02:42:51;;;;;;;3.67;2.73;;;16.40;71.90;;;;;;10385321;28;20222;-63
2021/10/10 02:48:13;;;;;;;3.67;3.10;;;16.40;71.80;;;;;;10376047;28;20687;-64
2021/10/10 02:53:35;;;;;;;4.17;3.23;;;16.40;71.80;;;;;;10404694;28;20190;-64
2021/10/10 02:58:59;;;;;;;3.53;3.03;;;16.30;71.60;;;;;;10393881;28;20217;-64
2021/10/10 03:04:21;;;;;;;5.23;3.00;;;16.30;71.60;;;;;;10382446;28;20229;-63
2021/10/10 03:09:43;;;;;;;4.77;3.23;;;16.30;71.60;;;;;;10399748;28;20218;-63
2021/10/10 03:15:07;;;;;;;3.80;3.23;;;16.30;71.60;;;;;;10415600;28;20194;-63
2021/10/10 03:20:29;;;;;;;3.60;3.07;;;16.40;71.50;;;;;;10413259;28;20603;-63
2021/10/10 03:25:52;;;;;;;3.57;3.00;;;16.30;71.50;;;;;;10377448;28;20221;-63
2021/10/10 03:31:15;;;;;;;4.60;3.23;;;16.30;71.60;;;;;;10374962;28;20221;-64
2021/10/10 03:36:37;;;;;;;3.93;3.07;;;16.30;71.50;;;;;;10377535;28;20190;-64
2021/10/10 03:41:59;;;;;;;5.43;3.40;;;16.30;71.40;;;;;;10405840;28;20218;-63
2021/10/10 03:47:23;;;;;;;4.37;3.40;;;16.30;71.40;;;;;;10411858;28;20201;-64
2021/10/10 03:52:45;;;;;;;5.07;3.67;;;16.30;71.40;;;;;;10417742;28;20436;-64
2021/10/10 03:58:08;;;;;;;3.20;2.70;;;16.30;71.40;;;;;;10413311;28;20723;-63
2021/10/10 04:03:32;;;;;;;3.93;3.20;;;16.30;71.30;;;;;;10405272;28;20222;-63
2021/10/10 04:08:54;;;;;;;3.47;3.07;;;16.30;71.40;;;;;;10373631;28;20639;-62
2021/10/10 04:14:16;;;;;;;3.33;3.03;;;16.30;71.30;;;;;;10372281;28;20191;-63
2021/10/10 04:19:40;;;;;;;3.50;3.10;;;16.30;71.20;;;;;;10400287;28;20214;-63
2021/10/10 04:25:02;;;;;;;4.07;2.80;;;16.30;71.20;;;;;;10374454;28;20218;-64
2021/10/10 04:30:24;;;;;;;3.77;3.20;;;16.30;71.20;;;;;;10402306;28;20214;-63
2021/10/10 04:35:49;;;;;;;3.63;3.00;;;16.30;71.20;;;;;;10379806;28;20675;-65
2021/10/10 04:41:11;;;;;;;3.37;2.80;;;16.30;71.10;;;;;;10408750;28;20223;-63
2021/10/10 04:46:33;;;;;;;3.60;3.00;;;16.30;71.10;;;;;;10397247;28;20226;-65
2021/10/10 04:51:56;;;;;;;7.30;3.30;;;16.30;71.10;;;;;;10410629;28;20222;-65
2021/10/10 04:57:19;;;;;;;4.00;2.73;;;16.20;70.90;;;;;;10392019;28;20198;-63
2021/10/10 05:02:41;;;;;;;3.50;3.13;;;16.30;71.10;;;;;;10371994;28;20218;-63
2021/10/10 05:08:04;;;;;;;3.53;3.23;;;16.30;71.00;;;;;;10406168;23;20583;-68
2021/10/10 05:13:26;;;;;;;4.20;3.30;;;16.30;70.90;;;;;;10375317;28;20574;-66
2021/10/10 05:18:48;;;;;;;3.70;3.30;;;16.30;71.40;;;;;;10397347;28;20226;-69
2021/10/10 05:24:12;;;;;;;4.40;3.03;;;16.30;70.90;;;;;;10409428;28;20763;-68
2021/10/10 05:29:34;;;;;;;3.20;2.90;;;16.30;70.90;;;;;;10382824;28;20229;-68
2021/10/10 05:34:56;;;;;;;3.70;3.30;;;16.30;70.80;;;;;;10383058;28;20674;-68
2021/10/10 05:40:20;;;;;;;3.83;3.30;;;16.30;70.80;;;;;;10368227;28;20293;-67
2021/10/10 05:45:42;;;;;;;3.63;3.33;;;16.20;70.70;;;;;;10390597;28;20217;-67
2021/10/10 05:51:04;;;;;;;4.07;3.40;;;16.20;70.60;;;;;;10372050;28;20580;-68
2021/10/10 05:56:28;;;;;;;3.93;3.53;;;16.30;70.70;;;;;;10402127;28;20190;-68
2021/10/10 06:01:50;;;;;;;5.63;3.47;;;16.20;70.50;;;;;;10404589;28;20778;-66
2021/10/10 06:07:12;;;;;;;4.83;3.20;;;16.20;70.50;;;;;;10404743;28;20205;-67
2021/10/10 06:12:37;;;;;;;5.73;3.20;;;16.20;70.40;;;;;;10404062;28;20217;-68
2021/10/10 06:17:59;;;;;;;3.90;3.50;;;16.20;71.20;;;;;;10400378;28;20221;-64
2021/10/10 06:23:21;;;;;;;5.33;3.73;;;16.20;70.40;;;;;;10403678;28;20659;-66
2021/10/10 06:28:45;;;;;;;3.30;3.00;;;16.20;70.50;;;;;;10412520;28;20227;-65
2021/10/10 06:34:07;;;;;;;4.30;3.50;;;16.20;70.60;;;;;;10412463;28;20194;-65
2021/10/10 06:39:29;;;;;;;3.67;3.17;;;16.20;70.40;;;;;;10410304;28;20232;-66
2021/10/10 06:44:53;;;;;;;5.53;3.50;;;16.20;70.40;;;;;;10408237;28;20305;-65
2021/10/10 06:50:15;;;;;;;4.27;3.43;;;16.20;70.20;;;;;;10404573;28;20218;-66
2021/10/10 06:55:37;;;;;;;4.23;3.60;;;16.20;70.30;;;;;;10396177;28;20576;-68
2021/10/10 07:01:01;;;;;;;4.23;3.40;;;16.20;70.40;;;;;;10375216;28;20224;-69
2021/10/10 07:06:23;;;;;;;3.93;3.10;;;16.20;70.10;;;;;;10390120;28;20230;-66
2021/10/10 07:11:45;;;;;;;4.07;3.60;;;16.20;70.30;;;;;;10389819;28;20218;-65
2021/10/10 07:17:08;;;;;;;3.53;3.23;;;16.20;70.20;;;;;;10416519;28;20551;-66
2021/10/10 07:22:32;;;;;;;7.07;3.80;;;16.20;70.30;;;;;;10415877;28;20205;-66
2021/10/10 07:27:54;;;;;;;3.97;3.20;;;16.20;70.30;;;;;;10415802;28;20221;-68
2021/10/10 07:33:18;;;;;;;4.10;3.30;;;16.20;70.40;;;;;;10409059;28;20194;-68
2021/10/10 07:38:40;;;;;;;4.83;3.80;;;16.20;70.40;;;;;;10395048;28;20221;-64
2021/10/10 07:44:05;;;;;;;4.57;3.10;;;16.20;70.50;;;;;;10385635;28;20199;-67
2021/10/10 07:49:29;;;;;;;5.07;3.30;;;16.20;70.60;;;;;;10390117;28;20206;-65
2021/10/10 07:54:51;;;;;;;3.57;3.17;;;16.20;70.60;;;;;;10388259;28;20205;-68
2021/10/10 08:00:14;;;;;;;4.03;3.10;;;16.20;70.80;;;;;;10372107;28;20222;-67
2021/10/10 08:05:41;;;;;;;3.60;3.27;;;16.20;70.80;;;;;;10411037;28;20240;-66
2021/10/10 08:11:04;;;;;;;4.33;3.50;;;16.20;70.70;;;;;;10412344;28;20213;-68
2021/10/10 08:16:26;;;;;;;4.83;3.43;;;16.20;70.90;;;;;;10412992;28;20194;-68
2021/10/10 08:21:50;;;;;;;5.93;3.23;;;16.20;70.90;;;;;;10412256;28;20218;-67
2021/10/10 08:27:12;;;;;;;3.87;3.23;;;16.20;70.90;;;;;;10394609;28;20210;-67
2021/10/10 08:32:34;;;;;;;4.77;3.53;;;16.20;70.60;;;;;;10383916;28;20209;-68
2021/10/10 08:37:58;;;;;;;4.43;3.20;;;16.20;70.90;;;;;;10384742;28;20222;-67
2021/10/10 08:43:22;;;;;;;3.60;3.30;;;16.20;71.10;;;;;;10387098;28;20232;-65
2021/10/10 08:48:44;;;;;;;5.93;3.88;;;16.30;71.30;;;;;;10387072;28;20442;-64
2021/10/10 08:54:08;;;;;;;4.60;3.30;;;16.30;71.30;;;;;;10370999;28;20210;-63
2021/10/10 08:59:31;;;;;;;4.73;3.10;;;16.40;71.00;;;;;;10383612;28;20773;-63
2021/10/10 09:04:54;;;;;;;4.43;3.40;;;16.30;71.20;;;;;;10381613;28;20217;-63
2021/10/10 09:10:20;;;;;;;10.43;3.60;;;16.30;71.40;;;;;;10394922;28;20214;-63
2021/10/10 09:15:43;;;;;;;4.97;3.37;;;16.30;71.60;;;;;;10403045;28;20548;-63
2021/10/10 09:21:17;;;;;;;4.73;3.60;;;16.30;71.60;;;;;;10399931;28;20717;-64
2021/10/10 09:26:43;;;;;;;3.77;3.20;;;16.30;71.70;;;;;;10390953;28;20993;-61
2021/10/10 09:32:10;;;;;;;4.47;3.67;;;16.20;71.70;;;;;;10409536;28;20599;-63
2021/10/10 09:37:39;;;;;;;4.23;3.30;;;16.20;71.70;;;;;;10405522;28;20666;-63
2021/10/10 09:43:05;;;;;;;3.83;3.33;;;16.30;71.80;;;;;;10408802;28;20186;-63
2021/10/10 09:48:30;;;;;;;3.33;2.80;;;16.30;71.80;;;;;;10402952;28;20217;-63
2021/10/10 09:54:00;;;;;;;4.03;3.60;;;16.30;71.90;;;;;;10382079;28;20190;-67
2021/10/10 09:59:28;;;;;;;4.00;3.20;;;16.30;72.00;;;;;;10383259;28;20214;-64
2021/10/10 10:04:51;;;;;;;4.63;3.37;;;16.30;72.00;;;;;;10389961;28;20214;-68
2021/10/10 10:10:14;;;;;;;4.37;3.97;;;16.30;72.00;;;;;;10365767;28;20426;-64
2021/10/10 10:15:37;;;;;;;3.43;3.13;;;16.80;69.80;;;;;;10380049;28;20191;-65
2021/10/10 10:21:02;;;;;;;5.33;3.37;;;16.50;70.90;;;;;;10367438;28;20691;-68
2021/10/10 10:26:24;;;;;;;5.10;3.40;;;16.40;71.90;;;;;;10375558;28;20214;-65
2021/10/10 10:31:48;;;;;;;5.83;3.93;;;16.30;71.30;;;;;;10405828;28;20214;-66
2021/10/10 10:37:11;;;;;;;4.50;3.37;;;16.30;71.20;;;;;;10387922;28;20465;-68
2021/10/10 10:42:40;;;;;;;5.27;3.53;;;16.30;71.40;;;;;;10361816;28;20207;-64
2021/10/10 10:48:05;;;;;;;5.00;3.10;;;16.30;71.70;;;;;;10377192;28;20227;-67
2021/10/10 10:53:27;;;;;;;4.70;3.40;;;16.20;71.90;;;;;;10380971;28;20209;-66
2021/10/10 10:58:49;;;;;;;4.00;3.10;;;16.30;72.10;;;;;;10373783;28;20253;-67
2021/10/10 11:04:29;;;;;;;3.43;3.13;;;16.20;72.20;;;;;;10381177;28;20229;-66
2021/10/10 11:09:55;;;;;;;4.00;3.37;;;16.20;72.10;;;;;;10370406;28;20229;-65
2021/10/10 11:15:17;;;;;;;7.33;4.10;;;16.30;72.00;;;;;;10390558;28;20194;-65
2021/10/10 11:20:49;;;;;;;5.00;3.53;;;16.20;71.80;;;;;;10408037;28;20556;-62
2021/10/10 11:26:13;;;;;;;5.53;3.80;;;16.30;72.10;;;;;;10409473;28;20230;-61
2021/10/10 11:31:37;;;;;;;6.40;3.80;;;16.30;72.30;;;;;;10409260;28;20247;-64
2021/10/10 11:37:01;;;;;;;7.37;3.83;;;16.30;72.50;;;;;;10408424;28;20789;-62
2021/10/10 11:42:23;;;;;;;9.17;4.37;;;16.30;72.60;;;;;;10437183;22;20311;-66
2021/10/10 11:47:50;;;;;;;6.57;3.67;;;16.30;72.60;;;;;;10454900;28;20221;-66
2021/10/10 11:53:14;;;;;;;5.13;3.53;;;16.40;72.80;;;;;;10418116;28;20218;-66
2021/10/10 11:58:36;;;;;;;5.37;3.87;;;16.30;72.70;;;;;;10415921;28;20200;-66
2021/10/10 12:03:58;;;;;;;5.80;3.70;;;16.30;72.80;;;;;;10410555;28;20210;-66
2021/10/10 12:09:22;;;;;;;6.60;3.80;;;16.30;72.90;;;;;;10413301;28;20209;-66
2021/10/10 12:14:46;;;;;;;6.17;3.90;;;16.30;72.90;;;;;;10405062;28;20230;-66
2021/10/10 12:20:23;;;;;;;5.30;3.43;;;16.30;72.80;;;;;;10372500;28;20229;-66
2021/10/10 12:25:46;;;;;;;6.43;3.80;;;16.30;72.80;;;;;;10372939;28;20222;-66
2021/10/10 12:31:10;;;;;;;6.67;3.97;;;16.30;72.90;;;;;;10372841;28;20225;-66
2021/10/10 12:36:43;;;;;;;5.10;3.47;;;16.30;73.00;;;;;;10375365;28;20316;-66
2021/10/10 12:42:06;;;;;;;4.73;3.07;;;16.30;73.10;;;;;;10372560;28;20226;-66
2021/10/10 12:47:28;;;;;;;5.40;3.70;;;16.30;73.30;;;;;;10402876;28;20609;-65
2021/10/10 12:52:50;;;;;;;4.50;3.53;;;16.30;73.40;;;;;;10395069;28;20570;-65
2021/10/10 12:58:14;;;;;;;5.97;3.30;;;16.30;73.40;;;;;;10409568;28;20185;-65
2021/10/10 13:03:36;;;;;;;4.30;3.27;;;16.30;73.50;;;;;;10412525;28;20225;-66
2021/10/10 13:08:59;;;;;;;4.83;3.37;;;16.20;73.40;;;;;;10413171;28;20201;-66
2021/10/10 13:14:23;;;;;;;5.43;3.60;;;16.20;73.50;;;;;;10394440;28;20218;-66
2021/10/10 13:19:45;;;;;;;7.03;3.70;;;16.30;73.70;;;;;;10372288;28;20816;-66
2021/10/10 13:25:08;;;;;;;4.27;3.33;;;16.30;73.70;;;;;;10371538;28;20716;-66
2021/10/10 13:30:31;;;;;;;3.47;2.80;;;16.30;73.80;;;;;;10371276;28;20214;-66
2021/10/10 13:35:53;;;;;;;5.73;3.30;;;16.30;73.80;;;;;;10407722;28;20202;-66
2021/10/10 13:41:15;;;;;;;5.57;3.37;;;16.30;73.80;;;;;;10411519;28;20715;-66
2021/10/10 13:46:39;;;;;;;5.90;3.50;;;16.30;73.80;;;;;;10410606;28;20755;-66
2021/10/10 13:52:01;;;;;;;3.77;3.07;;;16.30;73.90;;;;;;10381348;28;20214;-66
2021/10/10 13:57:25;;;;;;;5.20;3.20;;;16.30;73.90;;;;;;10402429;28;20727;-66
2021/10/10 14:02:48;;;;;;;4.60;3.07;;;16.30;73.90;;;;;;10402687;28;20754;-66
2021/10/10 14:08:11;;;;;;;4.10;3.40;;;16.30;73.90;;;;;;10411217;28;20221;-65
2021/10/10 14:13:33;;;;;;;6.00;3.17;;;16.30;73.90;;;;;;10410442;28;20217;-66
2021/10/10 14:18:56;;;;;;;3.73;2.80;;;16.20;73.90;;;;;;10408828;28;20190;-66
2021/10/10 14:24:18;;;;;;;3.87;2.80;;;16.30;74.00;;;;;;10387619;28;20224;-65
2021/10/10 14:29:41;;;;;;;3.70;3.00;;;16.30;74.00;;;;;;10398232;28;20198;-66
2021/10/10 14:35:05;;;;;;;4.23;3.13;;;16.30;74.00;;;;;;10410587;28;20273;-66
2021/10/10 14:40:28;;;;;;;3.77;2.80;;;16.30;74.00;;;;;;10381616;28;20230;-66
2021/10/10 14:45:57;;;;;;;4.87;3.50;;;16.20;74.00;;;;;;10376534;28;20214;-66
2021/10/10 14:51:21;;;;;;;5.17;3.40;;;16.30;74.00;;;;;;10400179;28;20214;-66
2021/10/10 14:56:43;;;;;;;3.97;3.30;;;16.30;74.00;;;;;;10393115;28;20195;-65
2021/10/10 15:02:05;;;;;;;4.30;3.00;;;16.20;74.00;;;;;;10402985;28;20293;-66
2021/10/10 15:07:30;;;;;;;4.43;3.10;;;16.20;74.00;;;;;;10414607;28;20708;-66
2021/10/10 15:12:53;;;;;;;4.57;2.97;;;16.20;74.00;;;;;;10410925;28;20228;-66
2021/10/10 15:18:15;;;;;;;4.37;3.00;;;16.20;74.00;;;;;;10417287;28;20197;-66
2021/10/10 15:23:39;;;;;;;4.33;2.70;;;16.20;74.00;;;;;;10384481;28;20245;-65
2021/10/10 15:29:01;;;;;;;3.60;2.60;;;16.20;74.10;;;;;;10375882;28;20669;-66
2021/10/10 15:34:23;;;;;;;3.77;2.83;;;16.20;74.20;;;;;;10374753;28;20686;-66
2021/10/10 15:39:47;;;;;;;4.83;2.70;;;16.30;74.80;;;;;;10374951;28;20199;-65
2021/10/10 15:45:10;;;;;;;3.60;2.60;;;16.30;74.20;;;;;;10374980;28;20221;-65
2021/10/10 15:50:32;;;;;;;4.00;3.00;;;16.20;74.20;;;;;;10407071;28;20589;-66
2021/10/10 15:55:55;;;;;;;2.87;2.40;;;16.20;74.10;;;;;;10401504;28;20213;-65
2021/10/10 16:01:17;;;;;;;3.03;2.73;;;16.20;74.10;;;;;;10387234;28;20275;-65
2021/10/10 16:06:40;;;;;;;3.90;2.87;;;16.20;74.60;;;;;;10412486;28;20573;-67
2021/10/10 16:12:03;;;;;;;3.43;2.87;;;16.20;74.00;;;;;;10414599;28;20292;-66
2021/10/10 16:17:26;;;;;;;4.53;3.30;;;16.20;74.10;;;;;;10414673;28;20194;-66
2021/10/10 16:22:51;;;;;;;3.83;3.10;;;16.20;74.10;;;;;;10399290;28;20691;-66
2021/10/10 16:28:15;;;;;;;3.40;2.90;;;16.20;74.10;;;;;;10393519;28;20210;-65
2021/10/10 16:33:41;;;;;;;3.73;2.80;;;16.30;74.20;;;;;;10393439;28;20425;-65
2021/10/10 16:39:06;;;;;;;3.93;2.67;;;16.20;74.20;;;;;;10410201;28;20265;-65
2021/10/10 16:44:29;;;;;;;3.10;2.80;;;16.20;74.10;;;;;;10412894;28;20217;-65
2021/10/10 16:49:54;;;;;;;4.00;3.40;;;16.20;74.10;;;;;;10395568;28;20431;-64
2021/10/10 16:55:16;;;;;;;7.20;3.57;;;16.60;72.80;;;;;;10410446;28;20193;-54
2021/10/10 17:00:41;;;;;;;7.37;3.47;;;16.60;72.40;;;;;;10403989;28;20218;-66
2021/10/10 17:06:04;;;;;;;9.95;4.78;;;16.50;72.80;;;;;;10396273;28;20438;-56
2021/10/10 17:11:27;;;;;;;5.47;3.90;;;17.10;71.20;;;;;;10408602;28;20226;-55
2021/10/10 17:16:52;;;;;;;121.17;54.87;;;17.00;71.80;;;;;;10371462;28;20419;-69
2021/10/10 17:22:14;;;;;;;214.73;85.03;;;17.30;70.60;;;;;;10413951;28;20280;-66
2021/10/10 17:27:37;;;;;;;196.83;79.53;;;17.30;70.80;;;;;;10415433;28;20219;-67
2021/10/10 17:33:00;;;;;;;180.17;73.27;;;17.00;72.20;;;;;;10410777;28;20895;-66
2021/10/10 17:38:22;;;;;;;141.23;61.33;;;16.90;71.90;;;;;;10411058;28;20785;-68
2021/10/10 17:43:44;;;;;;;152.75;72.32;;;17.40;70.30;;;;;;10406640;28;20417;-66
2021/10/10 17:49:09;;;;;;;154.83;64.80;;;18.00;67.20;;;;;;10401696;28;20222;-67
2021/10/10 17:54:31;;;;;;;111.35;51.63;;;17.50;68.80;;;;;;10434144;22;20450;-67
2021/10/10 17:59:56;;;;;;;95.10;44.23;;;17.80;68.10;;;;;;10480387;28;20211;-68
2021/10/10 18:11:05;;;;;;;81.30;39.00;;;17.60;68.80;;;;;;10491114;28;20277;-67
2021/10/10 18:16:27;;;;;;;66.83;31.73;;;17.20;70.10;;;;;;10493472;28;20201;-65
2021/10/10 18:21:50;;;;;;;71.97;32.03;;;16.90;70.90;;;;;;10456759;28;20249;-65
2021/10/10 18:27:12;;;;;;;61.13;29.47;;;16.80;71.40;;;;;;10444384;28;20231;-66
2021/10/10 18:32:36;;;;;;;55.60;27.13;;;16.60;71.80;;;;;;10447748;28;20235;-54
2021/10/10 18:37:59;;;;;;;52.27;26.73;;;16.60;72.20;;;;;;10457672;28;20197;-54
2021/10/10 18:43:21;;;;;;;49.77;25.67;;;16.60;72.20;;;;;;10443482;28;20569;-58
2021/10/10 18:48:44;;;;;;;47.60;23.83;;;16.50;72.30;;;;;;10437454;28;20229;-53
2021/10/10 18:54:07;;;;;;;47.33;23.37;;;16.50;72.50;;;;;;10440112;28;20673;-55
2021/10/10 18:59:29;;;;;;;39.43;21.27;;;16.40;72.60;;;;;;10443113;28;20197;-52
2021/10/10 19:04:51;;;;;;;43.37;21.20;;;16.40;72.70;;;;;;10439425;28;20209;-49
2021/10/10 19:10:15;;;;;;;37.60;21.63;;;16.40;72.60;;;;;;10428072;28;20209;-54
2021/10/10 19:15:37;;;;;;;35.77;20.00;;;16.40;72.60;;;;;;10439164;28;20224;-51
2021/10/10 19:20:59;;;;;;;32.90;19.23;;;16.40;72.60;;;;;;10432573;28;20577;-53
2021/10/10 19:26:23;;;;;;;35.77;18.97;;;16.30;72.50;;;;;;10440131;28;20707;-49
2021/10/10 19:31:45;;;;;;;34.23;18.20;;;16.30;72.50;;;;;;10440779;28;20196;-54
2021/10/10 19:37:07;;;;;;;30.13;17.40;;;16.30;72.60;;;;;;10437845;28;20221;-53
2021/10/10 19:42:31;;;;;;;32.97;17.97;;;16.30;72.60;;;;;;10442465;28;20205;-52
2021/10/10 19:47:53;;;;;;;30.83;16.70;;;16.30;72.60;;;;;;10434542;28;20578;-56
2021/10/10 19:53:15;;;;;;;31.47;15.80;;;16.30;72.50;;;;;;10435883;28;20714;-53
2021/10/10 19:58:40;;;;;;;29.00;16.43;;;16.30;72.40;;;;;;10442328;28;20576;-54
2021/10/10 20:04:02;;;;;;;33.13;17.10;;;16.30;72.50;;;;;;10437640;28;20224;-53
2021/10/10 20:09:24;;;;;;;26.67;16.40;;;16.30;72.40;;;;;;10434557;28;20227;-52
2021/10/10 20:14:47;;;;;;;24.93;14.80;;;16.30;72.50;;;;;;10439150;28;20213;-52
2021/10/10 20:20:10;;;;;;;27.40;15.07;;;16.30;72.50;;;;;;10437733;28;20200;-53
2021/10/10 20:25:33;;;;;;;22.07;13.83;;;16.30;72.50;;;;;;10443013;28;20701;-49
2021/10/10 20:30:56;;;;;;;23.33;14.33;;;16.30;72.40;;;;;;10432865;28;20194;-49
2021/10/10 20:36:19;;;;;;;23.23;13.97;;;16.30;72.40;;;;;;10435190;28;20220;-55
2021/10/10 20:41:41;;;;;;;22.77;13.00;;;16.20;72.30;;;;;;10436983;28;20205;-54
2021/10/10 20:47:06;;;;;;;21.67;12.43;;;16.20;72.30;;;;;;10434273;28;20225;-52
2021/10/10 20:52:28;;;;;;;23.57;11.83;;;16.20;72.30;;;;;;10432343;28;20260;-55
2021/10/10 20:57:50;;;;;;;18.63;12.57;;;16.20;72.20;;;;;;10448918;28;20196;-54
2021/10/10 21:03:13;;;;;;;18.63;11.43;;;16.20;72.20;;;;;;10417094;28;20224;-52
2021/10/10 21:08:35;;;;;;;19.57;11.73;;;16.20;72.20;;;;;;10431913;28;20593;-56
2021/10/10 21:13:57;;;;;;;19.00;11.67;;;16.20;72.20;;;;;;10437423;28;20212;-55
2021/10/10 21:19:21;;;;;;;17.30;11.27;;;16.20;72.20;;;;;;10424434;28;20225;-56
2021/10/10 21:24:43;;;;;;;18.47;11.00;;;16.20;72.20;;;;;;10413079;28;20217;-58
2021/10/10 21:30:13;;;;;;;17.17;11.20;;;16.20;72.10;;;;;;10412133;28;20214;-56
2021/10/10 21:35:37;;;;;;;17.27;10.90;;;16.20;72.80;;;;;;10412689;28;20210;-56
2021/10/10 21:41:00;;;;;;;14.97;9.33;;;16.20;72.10;;;;;;10412881;28;20195;-51
2021/10/10 21:46:22;;;;;;;17.83;9.67;;;16.20;72.10;;;;;;10417609;28;20221;-53
2021/10/10 21:51:45;;;;;;;15.97;10.43;;;16.20;72.10;;;;;;10450699;28;20197;-54
2021/10/10 21:57:07;;;;;;;14.03;9.83;;;16.20;72.00;;;;;;10418882;28;20230;-53
2021/10/10 22:02:29;;;;;;;16.60;10.00;;;16.20;72.00;;;;;;10411827;28;20225;-52
2021/10/10 22:07:53;;;;;;;15.00;9.20;;;16.20;71.90;;;;;;10451484;28;20224;-55
2021/10/10 22:13:15;;;;;;;14.67;8.37;;;16.20;71.90;;;;;;10451998;28;20217;-54
2021/10/10 22:18:37;;;;;;;12.63;8.13;;;16.20;71.90;;;;;;10450396;28;20197;-55
2021/10/10 22:24:04;;;;;;;11.30;7.87;;;16.10;71.80;;;;;;10449369;28;20217;-55
2021/10/10 22:35:06;;;;;;;10.07;7.53;;;16.10;71.80;;;;;;10410669;28;20715;-55
2021/10/10 22:40:29;;;;;;;10.77;7.47;;;16.10;72.40;;;;;;10409245;28;20194;-55
2021/10/10 22:45:51;;;;;;;11.73;7.17;;;16.10;71.80;;;;;;10443491;28;20216;-51
2021/10/10 22:51:16;;;;;;;10.60;6.90;;;16.10;71.70;;;;;;10410288;28;20193;-55
2021/10/10 22:56:39;;;;;;;10.93;7.67;;;16.10;71.60;;;;;;10419694;28;20256;-54
2021/10/10 23:02:01;;;;;;;10.13;7.20;;;16.10;71.60;;;;;;10420187;28;20208;-52
2021/10/10 23:07:24;;;;;;;10.27;6.60;;;16.10;71.70;;;;;;10454709;28;20213;-52
2021/10/10 23:12:47;;;;;;;7.73;5.70;;;16.10;71.60;;;;;;10459426;28;20209;-52
2021/10/10 23:18:10;;;;;;;10.60;6.90;;;16.10;71.60;;;;;;10439030;28;20189;-56
2021/10/10 23:23:32;;;;;;;9.63;6.40;;;16.10;71.60;;;;;;10417061;28;20225;-51
2021/10/10 23:28:56;;;;;;;10.30;6.67;;;16.10;71.50;;;;;;10415321;28;20591;-55
2021/10/10 23:34:18;;;;;;;8.73;5.70;;;16.10;71.50;;;;;;10424426;28;20214;-54
2021/10/10 23:39:40;;;;;;;7.07;5.37;;;16.10;71.50;;;;;;10416743;28;20194;-53
2021/10/10 23:45:04;;;;;;;8.37;5.53;;;16.10;71.40;;;;;;10416548;28;20229;-54
2021/10/10 23:50:26;;;;;;;8.87;5.63;;;16.10;71.40;;;;;;10455007;28;20292;-59
2021/10/10 23:55:48;;;;;;;7.83;5.50;;;16.10;71.40;;;;;;10465619;22;20612;-58
